createdAt,value
2023-04-16T00:01:16.964Z,12.12
2023-04-16T00:03:44.757Z,12.17
2023-04-16T00:06:12.849Z,12.20
2023-04-16T00:08:43.872Z,12.15
2023-04-16T00:11:11.591Z,12.22
2023-04-16T00:13:39.273Z,12.19
2023-04-16T00:16:08.708Z,12.18
2023-04-16T00:18:36.492Z,12.17
2023-04-16T00:21:04.452Z,12.24
2023-04-16T00:23:32.636Z,12.24
2023-04-16T00:26:01.708Z,12.25
2023-04-16T00:28:29.395Z,12.22
2023-04-16T00:30:57.816Z,12.20
2023-04-16T00:33:25.612Z,12.18
2023-04-16T00:35:53.346Z,12.13
2023-04-16T00:38:21.518Z,12.11
2023-04-16T00:40:49.212Z,12.14
2023-04-16T00:43:25.306Z,12.20
2023-04-16T00:45:53.951Z,12.24
2023-04-16T00:48:22.011Z,12.20
2023-04-16T00:50:50.347Z,12.22
2023-04-16T00:53:18.151Z,12.24
2023-04-16T00:55:46.496Z,12.22
2023-04-16T00:58:14.693Z,12.19
2023-04-16T01:00:43.783Z,12.19
2023-04-16T01:03:11.848Z,12.19
2023-04-16T01:05:41.057Z,12.24
2023-04-16T01:08:15.813Z,12.28
2023-04-16T01:10:43.904Z,12.30
2023-04-16T01:13:11.918Z,12.20
2023-04-16T01:15:39.791Z,12.28
2023-04-16T01:18:16.636Z,12.31
2023-04-16T01:20:46.211Z,12.33
2023-04-16T01:23:13.922Z,12.31
2023-04-16T01:25:42.115Z,12.30
2023-04-16T01:28:09.795Z,12.24
2023-04-16T01:30:37.512Z,12.28
2023-04-16T01:33:06.301Z,12.25
2023-04-16T01:35:33.977Z,12.30
2023-04-16T01:38:03.075Z,12.31
2023-04-16T01:40:31.494Z,12.24
2023-04-16T01:42:59.164Z,12.26
2023-04-16T01:45:26.967Z,12.17
2023-04-16T01:47:55.423Z,12.14
2023-04-16T01:50:24.867Z,12.23
2023-04-16T01:52:52.543Z,12.19
2023-04-16T01:55:22.532Z,12.25
2023-04-16T01:57:50.279Z,12.28
2023-04-16T02:00:18.033Z,12.11
2023-04-16T02:02:46.562Z,12.20
2023-04-16T02:05:14.439Z,12.24
2023-04-16T02:07:42.134Z,12.17
2023-04-16T02:10:11.720Z,12.19
2023-04-16T02:12:40.581Z,12.22
2023-04-16T02:15:09.393Z,12.25
2023-04-16T02:17:37.646Z,12.25
2023-04-16T02:20:08.020Z,12.26
2023-04-16T02:22:35.845Z,12.29
2023-04-16T02:25:03.979Z,12.28
2023-04-16T02:27:31.682Z,12.27
2023-04-16T02:30:00.718Z,12.30
2023-04-16T02:32:29.020Z,12.34
2023-04-16T02:34:57.044Z,12.35
2023-04-16T02:37:25.825Z,12.36
2023-04-16T02:39:54.100Z,12.38
2023-04-16T02:42:21.860Z,12.40
2023-04-16T02:44:49.534Z,12.41
2023-04-16T02:47:19.055Z,12.41
2023-04-16T02:49:46.810Z,12.41
2023-04-16T02:52:15.625Z,12.42
2023-04-16T02:54:43.901Z,12.28
2023-04-16T02:57:11.575Z,12.36
2023-04-16T02:59:39.257Z,12.36
2023-04-16T03:02:07.540Z,12.37
2023-04-16T03:04:36.791Z,12.37
2023-04-16T03:07:04.771Z,12.32
2023-04-16T03:09:33.650Z,12.33
2023-04-16T03:12:01.750Z,12.35
2023-04-16T03:14:29.560Z,12.37
2023-04-16T03:16:57.864Z,12.39
2023-04-16T03:19:25.713Z,12.41
2023-04-16T03:21:54.776Z,12.43
2023-04-16T03:24:22.902Z,12.46
2023-04-16T03:26:50.614Z,12.46
2023-04-16T03:29:18.286Z,12.43
2023-04-16T03:31:46.830Z,12.44
2023-04-16T03:34:14.504Z,12.47
2023-04-16T03:36:42.172Z,12.47
2023-04-16T03:39:11.456Z,12.43
2023-04-16T03:41:39.257Z,12.46
2023-04-16T03:44:06.944Z,12.40
2023-04-16T03:46:35.246Z,12.39
2023-04-16T03:49:02.934Z,12.39
2023-04-16T03:51:30.887Z,12.41
2023-04-16T03:53:59.133Z,12.38
2023-04-16T03:56:28.199Z,12.37
2023-04-16T03:58:55.895Z,12.31
2023-04-16T04:01:24.160Z,12.32
2023-04-16T04:03:52.069Z,12.31
2023-04-16T04:06:19.965Z,12.29
2023-04-16T04:08:48.072Z,12.25
2023-04-16T04:11:15.773Z,12.24
2023-04-16T04:13:44.805Z,12.25
2023-04-16T04:16:13.170Z,12.19
2023-04-16T04:18:41.718Z,12.20
2023-04-16T04:21:11.057Z,12.16
2023-04-16T04:23:39.441Z,12.18
2023-04-16T04:26:07.520Z,12.18
2023-04-16T04:28:36.111Z,12.16
2023-04-16T04:31:05.874Z,12.15
2023-04-16T04:33:33.382Z,12.20
2023-04-16T04:36:01.080Z,12.20
2023-04-16T04:38:30.487Z,12.19
2023-04-16T04:40:58.259Z,12.19
2023-04-16T04:43:26.194Z,12.14
2023-04-16T04:45:54.403Z,12.15
2023-04-16T04:48:26.526Z,12.16
2023-04-16T04:50:55.227Z,12.15
2023-04-16T04:53:22.949Z,12.17
2023-04-16T04:55:53.149Z,12.19
2023-04-16T04:58:23.805Z,12.19
2023-04-16T05:00:51.501Z,12.20
2023-04-16T05:03:22.607Z,12.23
2023-04-16T05:05:51.775Z,12.24
2023-04-16T05:08:19.440Z,12.22
2023-04-16T05:10:47.659Z,12.22
2023-04-16T05:13:15.358Z,12.23
2023-04-16T05:15:43.059Z,12.25
2023-04-16T05:18:11.181Z,12.24
2023-04-16T05:20:38.883Z,12.22
2023-04-16T05:23:07.964Z,12.23
2023-04-16T05:25:36.214Z,12.22
2023-04-16T05:28:04.005Z,12.25
2023-04-16T05:30:31.747Z,12.25
2023-04-16T05:33:00.323Z,12.24
2023-04-16T05:35:28.046Z,12.22
2023-04-16T05:37:55.719Z,12.22
2023-04-16T05:40:25.199Z,12.16
2023-04-16T05:42:52.882Z,12.15
2023-04-16T05:45:20.656Z,12.15
2023-04-16T05:47:49.170Z,12.10
2023-04-16T05:50:17.065Z,12.01
2023-04-16T05:52:44.749Z,11.99
2023-04-16T05:55:13.086Z,12.02
2023-04-16T05:57:42.151Z,11.98
2023-04-16T06:00:10.572Z,11.89
2023-04-16T06:02:38.884Z,11.91
2023-04-16T06:05:07.174Z,11.97
2023-04-16T06:07:34.885Z,11.90
2023-04-16T06:10:03.049Z,11.83
2023-04-16T06:12:31.029Z,11.88
2023-04-16T06:15:00.884Z,11.92
2023-04-16T06:17:29.248Z,11.96
2023-04-16T06:19:56.918Z,11.92
2023-04-16T06:22:25.578Z,11.93
2023-04-16T06:24:54.427Z,12.02
2023-04-16T06:27:22.089Z,11.95
2023-04-16T06:29:51.621Z,12.02
2023-04-16T06:32:21.300Z,12.04
2023-04-16T06:34:48.837Z,12.08
2023-04-16T06:37:16.533Z,12.04
2023-04-16T06:39:44.805Z,12.06
2023-04-16T06:42:12.656Z,12.06
2023-04-16T06:44:40.360Z,12.08
2023-04-16T06:47:08.844Z,12.05
2023-04-16T06:49:39.435Z,12.03
2023-04-16T06:52:07.261Z,12.00
2023-04-16T06:54:35.278Z,12.03
2023-04-16T06:57:02.985Z,12.04
2023-04-16T06:59:30.876Z,12.07
2023-04-16T07:01:59.192Z,12.12
2023-04-16T07:04:26.929Z,12.20
2023-04-16T07:06:56.035Z,12.32
2023-04-16T07:09:23.728Z,12.44
2023-04-16T07:11:51.432Z,12.60
2023-04-16T07:14:19.190Z,12.68
2023-04-16T07:16:47.559Z,12.79
2023-04-16T07:19:15.338Z,12.83
2023-04-16T07:21:43.707Z,12.82
2023-04-16T07:24:13.475Z,12.76
2023-04-16T07:26:41.117Z,12.82
2023-04-16T07:29:09.387Z,12.75
2023-04-16T07:31:38.284Z,12.69
2023-04-16T07:34:06.529Z,12.61
2023-04-16T07:36:34.505Z,12.44
2023-04-16T07:39:03.117Z,12.49
2023-04-16T07:41:32.705Z,12.31
2023-04-16T07:44:00.681Z,12.35
2023-04-16T07:46:36.198Z,12.35
2023-04-16T07:49:13.656Z,12.28
2023-04-16T07:51:41.862Z,12.29
2023-04-16T07:54:09.587Z,12.27
2023-04-16T07:56:38.647Z,12.29
2023-04-16T07:59:21.166Z,12.30
2023-04-16T08:01:50.341Z,12.33
2023-04-16T08:04:25.631Z,12.35
2023-04-16T08:06:54.408Z,12.36
2023-04-16T08:09:24.487Z,12.40
2023-04-16T08:11:53.529Z,12.39
2023-04-16T08:14:21.524Z,12.37
2023-04-16T08:16:49.613Z,12.39
2023-04-16T08:19:17.303Z,12.39
2023-04-16T08:21:45.404Z,12.30
2023-04-16T08:24:13.132Z,12.29
2023-04-16T08:26:41.268Z,12.32
2023-04-16T08:29:10.736Z,12.22
2023-04-16T08:31:39.455Z,12.29
2023-04-16T08:34:07.193Z,12.27
2023-04-16T08:36:34.891Z,12.30
2023-04-16T08:39:02.819Z,12.34
2023-04-16T08:41:33.459Z,12.36
2023-04-16T08:44:06.101Z,12.37
2023-04-16T08:46:38.761Z,12.36
2023-04-16T08:49:09.742Z,12.33
2023-04-16T08:51:37.979Z,12.32
2023-04-16T08:54:10.293Z,12.28
2023-04-16T08:56:39.471Z,12.32
2023-04-16T08:59:11.274Z,12.30
2023-04-16T09:01:41.980Z,12.35
2023-04-16T09:04:10.875Z,12.34
2023-04-16T09:06:42.107Z,12.29
2023-04-16T09:09:12.074Z,12.24
2023-04-16T09:11:40.651Z,12.18
2023-04-16T09:14:12.446Z,12.21
2023-04-16T09:16:43.079Z,12.13
2023-04-16T09:19:11.845Z,12.20
2023-04-16T09:21:42.568Z,12.25
2023-04-16T09:24:11.396Z,12.23
2023-04-16T09:26:39.848Z,12.26
2023-04-16T09:29:10.127Z,12.22
2023-04-16T09:31:38.470Z,12.17
2023-04-16T09:34:10.549Z,12.17
2023-04-16T09:36:38.740Z,12.10
2023-04-16T09:39:06.801Z,12.11
2023-04-16T09:41:40.167Z,12.13
2023-04-16T09:44:07.891Z,12.17
2023-04-16T09:46:37.036Z,12.18
2023-04-16T09:49:11.097Z,12.06
2023-04-16T09:51:42.283Z,12.06
2023-04-16T09:54:12.746Z,12.10
2023-04-16T09:56:42.620Z,12.09
2023-04-16T09:59:18.458Z,12.09
2023-04-16T10:01:49.541Z,12.17
2023-04-16T10:04:20.088Z,12.18
2023-04-16T10:07:04.550Z,12.19
2023-04-16T10:09:33.950Z,12.17
2023-04-16T10:12:02.294Z,12.12
2023-04-16T10:14:30.904Z,12.22
2023-04-16T10:16:59.561Z,12.18
2023-04-16T10:19:31.650Z,12.20
2023-04-16T10:22:00.614Z,12.19
2023-04-16T10:24:29.477Z,12.17
2023-04-16T10:26:57.867Z,12.25
2023-04-16T10:29:28.096Z,12.25
2023-04-16T10:31:57.842Z,12.29
2023-04-16T10:34:26.412Z,12.33
2023-04-16T10:36:57.038Z,12.36
2023-04-16T10:39:26.479Z,12.36
2023-04-16T10:42:09.916Z,12.41
2023-04-16T10:44:38.187Z,12.41
2023-04-16T10:47:13.399Z,12.47
2023-04-16T10:49:41.689Z,12.50
2023-04-16T10:52:13.602Z,12.42
2023-04-16T10:54:42.382Z,12.48
2023-04-16T10:57:18.522Z,12.51
2023-04-16T10:59:47.144Z,12.51
2023-04-16T11:02:17.570Z,12.51
2023-04-16T11:04:46.741Z,12.51
2023-04-16T11:07:20.712Z,12.47
2023-04-16T11:10:00.206Z,12.52
2023-04-16T11:12:34.466Z,12.58
2023-04-16T11:15:04.872Z,12.59
2023-04-16T11:17:34.912Z,12.60
2023-04-16T11:20:03.205Z,12.59
2023-04-16T11:22:36.958Z,12.61
2023-04-16T11:25:05.775Z,12.57
2023-04-16T11:27:33.680Z,12.61
2023-04-16T11:30:04.652Z,12.64
2023-04-16T11:32:33.952Z,12.67
2023-04-16T11:35:04.927Z,12.66
2023-04-16T11:37:35.839Z,12.70
2023-04-16T11:40:07.337Z,12.72
2023-04-16T11:42:37.261Z,12.75
2023-04-16T11:45:06.215Z,12.71
2023-04-16T11:47:46.465Z,12.75
2023-04-16T11:50:22.127Z,12.82
2023-04-16T11:52:53.048Z,12.75
2023-04-16T11:55:21.764Z,12.81
2023-04-16T11:57:51.082Z,12.82
2023-04-16T12:00:24.363Z,12.84
2023-04-16T12:02:54.410Z,12.84
2023-04-16T12:05:31.437Z,12.88
2023-04-16T12:08:02.326Z,12.90
2023-04-16T12:10:31.781Z,12.89
2023-04-16T12:13:12.678Z,12.90
2023-04-16T12:15:48.469Z,12.84
2023-04-16T12:18:17.028Z,12.86
2023-04-16T12:20:47.598Z,12.85
2023-04-16T12:23:27.580Z,12.84
2023-04-16T12:25:56.623Z,12.83
2023-04-16T12:28:32.697Z,12.87
2023-04-16T12:31:01.155Z,12.88
2023-04-16T12:33:29.397Z,12.88
2023-04-16T12:35:58.529Z,12.82
2023-04-16T12:38:28.309Z,12.88
2023-04-16T12:40:57.873Z,12.88
2023-04-16T12:43:26.680Z,12.82
2023-04-16T12:45:54.873Z,12.89
2023-04-16T12:48:22.981Z,12.91
2023-04-16T12:50:51.341Z,12.92
2023-04-16T12:53:19.515Z,12.90
2023-04-16T12:55:49.031Z,12.87
2023-04-16T12:58:17.491Z,12.91
2023-04-16T13:00:46.067Z,12.91
2023-04-16T13:03:14.288Z,12.92
2023-04-16T13:05:42.738Z,13.01
2023-04-16T13:08:10.847Z,13.04
2023-04-16T13:10:39.013Z,13.07
2023-04-16T13:13:10.515Z,13.10
2023-04-16T13:15:38.814Z,13.10
2023-04-16T13:18:07.084Z,13.13
2023-04-16T13:20:36.193Z,13.16
2023-04-16T13:23:04.964Z,13.18
2023-04-16T13:25:33.009Z,13.19
2023-04-16T13:28:01.270Z,13.12
2023-04-16T13:30:31.817Z,13.13
2023-04-16T13:33:00.144Z,13.03
2023-04-16T13:35:28.699Z,13.05
2023-04-16T13:37:56.798Z,13.06
2023-04-16T13:40:24.801Z,13.06
2023-04-16T13:42:53.197Z,13.10
2023-04-16T13:45:21.675Z,13.02
2023-04-16T13:47:51.389Z,13.03
2023-04-16T13:50:19.464Z,13.09
2023-04-16T13:52:47.917Z,13.08
2023-04-16T13:55:19.233Z,13.02
2023-04-16T13:57:48.297Z,12.95
2023-04-16T14:00:17.368Z,13.05
2023-04-16T14:02:46.169Z,13.11
2023-04-16T14:05:15.858Z,13.11
2023-04-16T14:07:43.613Z,13.18
2023-04-16T14:10:12.654Z,13.23
2023-04-16T14:12:40.756Z,13.23
2023-04-16T14:15:10.755Z,13.28
2023-04-16T14:17:38.805Z,13.31
2023-04-16T14:20:08.065Z,13.37
2023-04-16T14:22:37.552Z,13.39
2023-04-16T14:25:06.100Z,13.31
2023-04-16T14:27:35.261Z,13.31
2023-04-16T14:30:03.478Z,13.37
2023-04-16T14:32:32.498Z,13.37
2023-04-16T14:35:00.723Z,13.35
2023-04-16T14:37:28.715Z,13.37
2023-04-16T14:39:58.750Z,13.39
2023-04-16T14:42:27.214Z,13.46
2023-04-16T14:44:55.343Z,13.45
2023-04-16T14:47:23.555Z,13.52
2023-04-16T14:49:51.692Z,13.57
2023-04-16T14:52:19.757Z,13.62
2023-04-16T14:54:49.491Z,13.66
2023-04-16T14:57:18.894Z,13.73
2023-04-16T14:59:46.975Z,13.78
2023-04-16T15:02:15.255Z,13.72
2023-04-16T15:04:43.417Z,13.65
2023-04-16T15:07:11.752Z,13.55
2023-04-16T15:09:40.403Z,13.66
2023-04-16T15:12:08.329Z,13.72
2023-04-16T15:14:37.543Z,13.68
2023-04-16T15:17:05.737Z,13.72
2023-04-16T15:19:33.996Z,13.77
2023-04-16T15:22:02.218Z,13.79
2023-04-16T15:24:30.843Z,13.73
2023-04-16T15:26:58.942Z,13.74
2023-04-16T15:29:26.950Z,13.80
2023-04-16T15:31:56.641Z,13.79
2023-04-16T15:34:24.747Z,13.85
2023-04-16T15:36:52.711Z,13.78
2023-04-16T15:39:21.599Z,13.78
2023-04-16T15:42:00.831Z,13.79
2023-04-16T15:44:32.162Z,13.82
2023-04-16T15:47:01.907Z,13.85
2023-04-16T15:49:29.877Z,13.88
2023-04-16T15:51:58.304Z,13.90
2023-04-16T15:54:26.302Z,13.93
2023-04-16T15:56:54.431Z,13.93
2023-04-16T15:59:22.902Z,13.92
2023-04-16T16:01:50.964Z,13.99
2023-04-16T16:04:23.152Z,14.02
2023-04-16T16:12:29.557Z,14.06
2023-04-16T16:14:58.786Z,14.05
2023-04-16T16:17:26.965Z,14.08
2023-04-16T16:19:57.666Z,14.05
2023-04-16T16:22:26.137Z,14.06
2023-04-16T16:24:56.360Z,14.10
2023-04-16T16:27:24.656Z,14.09
2023-04-16T16:29:52.655Z,14.12
2023-04-16T16:32:20.688Z,14.13
2023-04-16T16:34:48.730Z,14.12
2023-04-16T16:37:18.067Z,14.08
2023-04-16T16:39:46.129Z,14.08
2023-04-16T16:42:19.170Z,14.09
2023-04-16T16:44:48.819Z,14.03
2023-04-16T16:47:17.020Z,14.00
2023-04-16T16:49:45.686Z,14.03
2023-04-16T16:52:13.613Z,14.04
2023-04-16T16:54:43.421Z,14.06
2023-04-16T16:57:11.663Z,14.05
2023-04-16T16:59:39.843Z,14.06
2023-04-16T17:02:08.333Z,14.02
2023-04-16T17:04:36.613Z,14.02
2023-04-16T17:07:04.736Z,14.06
2023-04-16T17:09:33.151Z,14.07
2023-04-16T17:12:02.736Z,14.11
2023-04-16T17:14:30.517Z,14.15
2023-04-16T17:16:58.519Z,14.16
2023-04-16T17:19:26.673Z,14.13
2023-04-16T17:21:54.947Z,14.12
2023-04-16T17:24:23.095Z,14.07
2023-04-16T17:26:52.161Z,14.08
2023-04-16T17:29:26.062Z,14.04
2023-04-16T17:31:55.157Z,14.07
2023-04-16T17:34:23.276Z,14.08
2023-04-16T17:36:51.394Z,14.03
2023-04-16T17:39:19.614Z,14.06
2023-04-16T17:41:47.693Z,14.06
2023-04-16T17:44:16.128Z,14.09
2023-04-16T17:46:45.923Z,14.11
2023-04-16T17:49:14.145Z,14.12
2023-04-16T17:51:44.620Z,14.15
2023-04-16T17:54:13.221Z,14.14
2023-04-16T17:56:41.463Z,14.14
2023-04-16T17:59:09.337Z,14.15
2023-04-16T18:01:38.086Z,14.15
2023-04-16T18:04:08.042Z,14.17
2023-04-16T18:06:36.180Z,14.09
2023-04-16T18:09:06.276Z,14.09
2023-04-16T18:11:34.303Z,14.05
2023-04-16T18:14:02.282Z,14.07
2023-04-16T18:16:30.658Z,14.06
2023-04-16T18:18:59.230Z,14.05
2023-04-16T18:21:29.962Z,14.07
2023-04-16T18:23:58.355Z,14.03
2023-04-16T18:26:29.685Z,14.04
2023-04-16T18:28:58.527Z,14.03
2023-04-16T18:31:26.946Z,13.98
2023-04-16T18:33:57.888Z,14.00
2023-04-16T18:36:27.070Z,13.96
2023-04-16T18:39:01.756Z,13.99
2023-04-16T18:41:44.196Z,13.97
2023-04-16T18:44:12.666Z,13.96
2023-04-16T18:46:40.703Z,13.95
2023-04-16T18:49:09.492Z,13.96
2023-04-16T18:51:37.694Z,13.97
2023-04-16T18:54:07.318Z,13.93
2023-04-16T18:56:35.081Z,13.97
2023-04-16T18:59:03.250Z,13.87
2023-04-16T19:01:31.601Z,13.89
2023-04-16T19:04:00.043Z,13.86
2023-04-16T19:06:29.351Z,13.87
2023-04-16T19:08:57.496Z,13.78
2023-04-16T19:11:27.360Z,13.73
2023-04-16T19:13:55.542Z,13.71
2023-04-16T19:16:23.757Z,13.69
2023-04-16T19:18:52.828Z,13.66
2023-04-16T19:21:21.156Z,13.65
2023-04-16T19:23:49.494Z,13.59
2023-04-16T19:26:18.474Z,13.62
2023-04-16T19:28:48.003Z,13.64
2023-04-16T19:31:16.210Z,13.60
2023-04-16T19:33:44.781Z,13.60
2023-04-16T19:36:13.035Z,13.58
2023-04-16T19:38:41.224Z,13.59
2023-04-16T19:41:09.789Z,13.59
2023-04-16T19:43:37.823Z,13.61
2023-04-16T19:46:07.451Z,13.65
2023-04-16T19:48:35.348Z,13.71
2023-04-16T19:51:05.467Z,13.68
2023-04-16T19:53:34.533Z,13.70
2023-04-16T19:56:03.375Z,13.70
2023-04-16T19:58:32.044Z,13.71
2023-04-16T20:01:00.145Z,13.65
2023-04-16T20:03:30.162Z,13.68
2023-04-16T20:05:58.326Z,13.71
2023-04-16T20:08:26.533Z,13.64
2023-04-16T20:10:55.736Z,13.62
2023-04-16T20:13:23.709Z,13.53
2023-04-16T20:15:53.374Z,13.59
2023-04-16T20:18:22.177Z,13.61
2023-04-16T20:20:51.793Z,13.66
2023-04-16T20:23:20.087Z,13.63
2023-04-16T20:25:48.609Z,13.63
2023-04-16T20:28:18.282Z,13.60
2023-04-16T20:30:46.198Z,13.67
2023-04-16T20:33:14.512Z,13.66
2023-04-16T20:35:42.819Z,13.59
2023-04-16T20:38:12.297Z,13.63
2023-04-16T20:40:42.252Z,13.59
2023-04-16T20:43:14.328Z,13.63
2023-04-16T20:45:46.625Z,13.64
2023-04-16T20:48:14.737Z,13.62
2023-04-16T20:50:42.863Z,13.62
2023-04-16T20:53:13.311Z,13.64
2023-04-16T20:55:41.276Z,13.63
2023-04-16T20:58:09.571Z,13.62
2023-04-16T21:00:37.841Z,13.63
2023-04-16T21:03:06.979Z,13.58
2023-04-16T21:05:35.198Z,13.57
2023-04-16T21:08:03.423Z,13.64
2023-04-16T21:10:32.958Z,13.66
2023-04-16T21:13:00.918Z,13.69
2023-04-16T21:15:29.433Z,13.66
2023-04-16T21:17:57.338Z,13.68
2023-04-16T21:20:25.670Z,13.62
2023-04-16T21:22:57.489Z,13.66
2023-04-16T21:25:25.841Z,13.69
2023-04-16T21:27:55.730Z,13.69
2023-04-16T21:30:24.432Z,13.70
2023-04-16T21:32:52.755Z,13.72
2023-04-16T21:35:21.344Z,13.67
2023-04-16T21:37:50.317Z,13.67
2023-04-16T21:40:18.825Z,13.65
2023-04-16T21:42:47.132Z,13.60
2023-04-16T21:45:17.066Z,13.60
2023-04-16T21:47:45.344Z,13.61
2023-04-16T21:50:14.125Z,13.59
2023-04-16T21:52:46.929Z,13.60
2023-04-16T21:55:15.271Z,13.62
2023-04-16T21:57:43.429Z,13.58
2023-04-16T22:00:14.443Z,13.62
2023-04-16T22:02:44.370Z,13.66
2023-04-16T22:05:12.602Z,13.65
2023-04-16T22:07:42.132Z,13.67
2023-04-16T22:10:11.812Z,13.69
2023-04-16T22:12:41.713Z,13.69
2023-04-16T22:15:11.315Z,13.63
2023-04-16T22:17:39.710Z,13.71
2023-04-16T22:20:13.012Z,13.67
2023-04-16T22:22:41.440Z,13.66
2023-04-16T22:25:10.778Z,13.61
2023-04-16T22:27:39.708Z,13.63
2023-04-16T22:30:09.434Z,13.60
2023-04-16T22:32:37.678Z,13.48
2023-04-16T22:35:07.153Z,13.32
2023-04-16T22:37:37.099Z,13.35
2023-04-16T22:40:08.500Z,13.16
2023-04-16T22:42:36.683Z,13.26
2023-04-16T22:45:05.510Z,13.17
2023-04-16T22:47:34.253Z,13.12
2023-04-16T22:50:03.317Z,13.15
2023-04-16T22:52:31.453Z,13.08
2023-04-16T22:55:01.742Z,13.16
2023-04-16T22:57:29.843Z,13.14
2023-04-16T22:59:57.886Z,13.16
2023-04-16T23:02:26.965Z,13.18
2023-04-16T23:04:55.018Z,13.18
2023-04-16T23:07:23.159Z,13.20
2023-04-16T23:09:52.182Z,13.24
2023-04-16T23:12:21.695Z,13.28
2023-04-16T23:14:49.742Z,13.30
2023-04-16T23:17:18.569Z,13.34
2023-04-16T23:19:46.601Z,13.32
2023-04-16T23:22:14.848Z,13.34
2023-04-16T23:24:43.312Z,13.31
2023-04-16T23:27:11.498Z,13.35
2023-04-16T23:29:41.370Z,13.39
2023-04-16T23:32:10.809Z,13.40
2023-04-16T23:34:38.979Z,13.39
2023-04-16T23:37:07.111Z,13.38
2023-04-16T23:39:35.806Z,13.39
2023-04-16T23:42:03.910Z,13.39
2023-04-16T23:44:32.130Z,13.29
2023-04-16T23:47:02.551Z,13.35
2023-04-16T23:49:30.821Z,13.34
2023-04-16T23:51:59.184Z,13.35
2023-04-16T23:54:28.068Z,13.34
2023-04-16T23:56:57.166Z,13.24
2023-04-16T23:59:25.561Z,13.12
